Newman, Western Australia

10:25 PM AWST on November 27, 2014 (GMT +0800)
Newman | Change Station
CLOSE
Current Station
Airport
Location: Newman Airport,
Elevation: 1722 ft
Nearby Weather Stations

Elev 1722 ft 23.42 °S, 119.80 °E | Updated 25 minutes ago

Overcast
Overcast
72 °F
Feels Like 72 °F
N
10
Wind Variable Wind from WNW

Today
High -- | Low -- °F
--% Chance of Precip.
Yesterday
High -- | Low -- °F
Precip. -- in
5:05 AM 6:30 PM
Waxing Crescent, 30% visible
Pressure 30.01 in
Visibility 6.2 miles
Clouds Scattered Clouds 7700 ft
Mostly Cloudy 10000 ft
Overcast 11500 ft
Dew Point 64 °F
Humidity 78%
Rainfall 0.00 in
Snow Depth Not available.
UV 0 out of 12
Pollen Not available.
Air Quality Not available.
Flu Activity Not available.
METAR YNWN 271400Z AUTO 30009KT 9999 // SCT077 BKN100 OVC115 22/18 Q1016

More Conditions Fewer Conditions

Pressure 30.01 in
Visibility 6.2 miles
Clouds Scattered Clouds 7700 ft
Mostly Cloudy 10000 ft
Overcast 11500 ft
Dew Point 64 °F
Humidity 78%
Rainfall 0.00 in
Snow Depth Not available.
UV 0 out of 12
Pollen Not available.
Air Quality Not available.
Flu Activity Not available.
METAR YNWN 271400Z AUTO 30009KT 9999 // SCT077 BKN100 OVC115 22/18 Q1016

More Conditions Fewer Conditions

10-Day Weather Forecast

Almanac

Astronomy

Nov. 27, 2014 Rise Set
Actual Time
Civil Twilight
Nautical Twilight
Astronomical Twilight
Moon
Length of Visible Light
Length of Day
Tomorrow will be .
, % of the Moon is Illuminated

Today's Extremes

Country Highs Country Lows

Community

WunderPhotos

Upload Photos

1,774,005 photos uploaded!

WunderBlogs® & News

Nearby

Air Quality

  Air Quality AQ Index Pollutant
Not available.

Snow Depth

Station Depth Elevation

Earthquake Activity

City Distance Mag. Time & Date
Minimum magnitude displayed is 2.5.

Coastal Water Temperatures

Place Temperature

Nearby Weather Stations